sensor_id;sensor_type;location;lat;lon;timestamp;temperature;humidity
11142;DHT22;5625;50.122;19.864;2023-03-14T00:01:09;8.50;99.90
11142;DHT22;5625;50.122;19.864;2023-03-14T00:03:39;8.50;99.90
11142;DHT22;5625;50.122;19.864;2023-03-14T00:06:07;8.50;99.90
11142;DHT22;5625;50.122;19.864;2023-03-14T00:08:36;8.50;99.90
11142;DHT22;5625;50.122;19.864;2023-03-14T00:11:06;8.50;99.90
11142;DHT22;5625;50.122;19.864;2023-03-14T00:13:34;8.50;99.90
11142;DHT22;5625;50.122;19.864;2023-03-14T00:16:03;8.50;99.90
11142;DHT22;5625;50.122;19.864;2023-03-14T00:18:32;8.40;99.90
11142;DHT22;5625;50.122;19.864;2023-03-14T00:21:03;8.50;99.90
11142;DHT22;5625;50.122;19.864;2023-03-14T00:23:32;8.50;99.90
11142;DHT22;5625;50.122;19.864;2023-03-14T00:26:01;8.50;99.90
11142;DHT22;5625;50.122;19.864;2023-03-14T00:28:29;8.50;99.90
11142;DHT22;5625;50.122;19.864;2023-03-14T00:30:57;8.50;99.90
11142;DHT22;5625;50.122;19.864;2023-03-14T00:33:25;8.50;99.90
11142;DHT22;5625;50.122;19.864;2023-03-14T00:35:55;8.40;99.90
11142;DHT22;5625;50.122;19.864;2023-03-14T00:38:25;8.50;99.90
11142;DHT22;5625;50.122;19.864;2023-03-14T00:40:53;8.40;99.90
11142;DHT22;5625;50.122;19.864;2023-03-14T00:43:22;8.40;99.90
11142;DHT22;5625;50.122;19.864;2023-03-14T00:45:51;8.40;99.90
11142;DHT22;5625;50.122;19.864;2023-03-14T00:48:19;8.40;99.90
11142;DHT22;5625;50.122;19.864;2023-03-14T00:50:48;8.50;99.90
11142;DHT22;5625;50.122;19.864;2023-03-14T00:53:16;8.50;99.90
11142;DHT22;5625;50.122;19.864;2023-03-14T00:55:46;8.50;99.90
11142;DHT22;5625;50.122;19.864;2023-03-14T00:58:16;8.50;99.90
11142;DHT22;5625;50.122;19.864;2023-03-14T01:00:45;8.50;99.90
11142;DHT22;5625;50.122;19.864;2023-03-14T01:03:14;8.50;99.90
11142;DHT22;5625;50.122;19.864;2023-03-14T01:05:42;8.60;99.90
11142;DHT22;5625;50.122;19.864;2023-03-14T01:08:10;8.70;99.90
11142;DHT22;5625;50.122;19.864;2023-03-14T01:10:40;8.70;99.90
11142;DHT22;5625;50.122;19.864;2023-03-14T01:13:09;8.80;99.90
11142;DHT22;5625;50.122;19.864;2023-03-14T01:15:37;8.90;99.90
11142;DHT22;5625;50.122;19.864;2023-03-14T01:18:08;8.90;99.90
11142;DHT22;5625;50.122;19.864;2023-03-14T01:20:37;9.00;99.90
11142;DHT22;5625;50.122;19.864;2023-03-14T01:23:05;9.00;99.90
11142;DHT22;5625;50.122;19.864;2023-03-14T01:25:33;9.00;99.90
11142;DHT22;5625;50.122;19.864;2023-03-14T01:28:01;9.00;99.90
11142;DHT22;5625;50.122;19.864;2023-03-14T01:30:31;9.00;99.90
11142;DHT22;5625;50.122;19.864;2023-03-14T01:32:59;8.90;99.90
11142;DHT22;5625;50.122;19.864;2023-03-14T01:35:27;8.90;99.90
11142;DHT22;5625;50.122;19.864;2023-03-14T01:37:55;8.90;99.90
11142;DHT22;5625;50.122;19.864;2023-03-14T01:40:23;9.00;99.90
11142;DHT22;5625;50.122;19.864;2023-03-14T01:42:55;9.00;99.90
11142;DHT22;5625;50.122;19.864;2023-03-14T01:48:33;9.10;99.90
11142;DHT22;5625;50.122;19.864;2023-03-14T01:51:04;9.10;99.90
11142;DHT22;5625;50.122;19.864;2023-03-14T01:53:34;9.10;99.90
11142;DHT22;5625;50.122;19.864;2023-03-14T01:56:03;9.10;99.90
11142;DHT22;5625;50.122;19.864;2023-03-14T01:58:33;9.10;99.90
11142;DHT22;5625;50.122;19.864;2023-03-14T02:01:03;9.10;99.90
11142;DHT22;5625;50.122;19.864;2023-03-14T02:03:38;9.10;99.90
11142;DHT22;5625;50.122;19.864;2023-03-14T02:06:11;9.20;99.90
11142;DHT22;5625;50.122;19.864;2023-03-14T02:08:40;9.10;99.90
11142;DHT22;5625;50.122;19.864;2023-03-14T02:11:08;9.10;99.90
11142;DHT22;5625;50.122;19.864;2023-03-14T02:13:36;9.10;99.90
11142;DHT22;5625;50.122;19.864;2023-03-14T02:16:05;9.10;99.90
11142;DHT22;5625;50.122;19.864;2023-03-14T02:18:35;9.00;99.90
11142;DHT22;5625;50.122;19.864;2023-03-14T02:21:08;9.10;99.90
11142;DHT22;5625;50.122;19.864;2023-03-14T02:23:43;9.10;99.90
11142;DHT22;5625;50.122;19.864;2023-03-14T02:26:21;9.10;99.90
11142;DHT22;5625;50.122;19.864;2023-03-14T02:28:51;9.10;99.90
11142;DHT22;5625;50.122;19.864;2023-03-14T02:31:22;9.10;99.90
11142;DHT22;5625;50.122;19.864;2023-03-14T02:33:51;9.10;99.90
11142;DHT22;5625;50.122;19.864;2023-03-14T02:36:20;9.10;99.90
11142;DHT22;5625;50.122;19.864;2023-03-14T02:38:53;9.10;99.90
11142;DHT22;5625;50.122;19.864;2023-03-14T02:41:23;9.10;99.90
11142;DHT22;5625;50.122;19.864;2023-03-14T02:43:52;9.10;99.90
11142;DHT22;5625;50.122;19.864;2023-03-14T02:46:21;9.10;99.90
11142;DHT22;5625;50.122;19.864;2023-03-14T02:48:51;9.10;99.90
11142;DHT22;5625;50.122;19.864;2023-03-14T02:51:21;9.10;99.90
11142;DHT22;5625;50.122;19.864;2023-03-14T02:53:50;9.00;99.90
11142;DHT22;5625;50.122;19.864;2023-03-14T02:56:18;9.00;99.90
11142;DHT22;5625;50.122;19.864;2023-03-14T02:58:46;9.00;99.90
11142;DHT22;5625;50.122;19.864;2023-03-14T03:01:15;8.90;99.90
11142;DHT22;5625;50.122;19.864;2023-03-14T03:03:44;8.90;99.90
11142;DHT22;5625;50.122;19.864;2023-03-14T03:06:12;8.90;99.90
11142;DHT22;5625;50.122;19.864;2023-03-14T03:08:40;8.90;99.90
11142;DHT22;5625;50.122;19.864;2023-03-14T03:11:08;8.90;99.90
11142;DHT22;5625;50.122;19.864;2023-03-14T03:13:36;8.90;99.90
11142;DHT22;5625;50.122;19.864;2023-03-14T03:16:05;8.90;99.90
11142;DHT22;5625;50.122;19.864;2023-03-14T03:18:34;8.90;99.90
11142;DHT22;5625;50.122;19.864;2023-03-14T03:21:04;8.80;99.90
11142;DHT22;5625;50.122;19.864;2023-03-14T03:23:34;8.90;99.90
11142;DHT22;5625;50.122;19.864;2023-03-14T03:26:02;8.80;99.90
11142;DHT22;5625;50.122;19.864;2023-03-14T03:28:31;8.80;99.90
11142;DHT22;5625;50.122;19.864;2023-03-14T03:30:59;8.80;99.90
11142;DHT22;5625;50.122;19.864;2023-03-14T03:33:27;8.80;99.90
11142;DHT22;5625;50.122;19.864;2023-03-14T03:35:56;8.80;99.90
11142;DHT22;5625;50.122;19.864;2023-03-14T03:38:24;8.80;99.90
11142;DHT22;5625;50.122;19.864;2023-03-14T03:40:52;8.70;99.90
11142;DHT22;5625;50.122;19.864;2023-03-14T03:43:20;8.70;99.90
11142;DHT22;5625;50.122;19.864;2023-03-14T03:45:48;8.70;99.90
11142;DHT22;5625;50.122;19.864;2023-03-14T03:48:16;8.70;99.90
11142;DHT22;5625;50.122;19.864;2023-03-14T03:50:45;8.70;99.90
11142;DHT22;5625;50.122;19.864;2023-03-14T03:53:16;8.70;99.90
11142;DHT22;5625;50.122;19.864;2023-03-14T03:55:58;8.60;99.90
11142;DHT22;5625;50.122;19.864;2023-03-14T03:58:26;8.60;99.90
11142;DHT22;5625;50.122;19.864;2023-03-14T04:00:54;8.60;99.90
11142;DHT22;5625;50.122;19.864;2023-03-14T04:03:23;8.50;99.90
11142;DHT22;5625;50.122;19.864;2023-03-14T04:05:58;8.50;99.90
11142;DHT22;5625;50.122;19.864;2023-03-14T04:08:28;8.40;99.90
11142;DHT22;5625;50.122;19.864;2023-03-14T04:10:56;8.40;99.90
11142;DHT22;5625;50.122;19.864;2023-03-14T04:13:25;8.30;99.90
11142;DHT22;5625;50.122;19.864;2023-03-14T04:15:53;8.30;99.90
11142;DHT22;5625;50.122;19.864;2023-03-14T04:18:23;8.20;99.90
11142;DHT22;5625;50.122;19.864;2023-03-14T04:20:52;8.20;99.90
11142;DHT22;5625;50.122;19.864;2023-03-14T04:23:21;8.10;99.90
11142;DHT22;5625;50.122;19.864;2023-03-14T04:25:52;8.00;99.90
11142;DHT22;5625;50.122;19.864;2023-03-14T04:28:20;8.00;99.90
11142;DHT22;5625;50.122;19.864;2023-03-14T04:30:48;7.90;99.90
11142;DHT22;5625;50.122;19.864;2023-03-14T04:33:16;7.90;99.90
11142;DHT22;5625;50.122;19.864;2023-03-14T04:35:44;7.80;99.90
11142;DHT22;5625;50.122;19.864;2023-03-14T04:38:13;7.70;99.90
11142;DHT22;5625;50.122;19.864;2023-03-14T04:40:41;7.70;99.90
11142;DHT22;5625;50.122;19.864;2023-03-14T04:43:11;7.70;99.90
11142;DHT22;5625;50.122;19.864;2023-03-14T04:45:41;7.60;99.90
11142;DHT22;5625;50.122;19.864;2023-03-14T04:48:09;7.60;99.90
11142;DHT22;5625;50.122;19.864;2023-03-14T04:50:37;7.50;99.90
11142;DHT22;5625;50.122;19.864;2023-03-14T04:53:06;7.50;99.90
11142;DHT22;5625;50.122;19.864;2023-03-14T04:55:35;7.40;99.90
11142;DHT22;5625;50.122;19.864;2023-03-14T04:58:03;7.40;99.90
11142;DHT22;5625;50.122;19.864;2023-03-14T05:00:33;7.40;99.90
11142;DHT22;5625;50.122;19.864;2023-03-14T05:03:01;7.40;99.90
11142;DHT22;5625;50.122;19.864;2023-03-14T05:05:29;7.30;99.90
11142;DHT22;5625;50.122;19.864;2023-03-14T05:07:57;7.30;99.90
11142;DHT22;5625;50.122;19.864;2023-03-14T05:10:25;7.30;99.90
11142;DHT22;5625;50.122;19.864;2023-03-14T05:12:53;7.30;99.90
11142;DHT22;5625;50.122;19.864;2023-03-14T05:15:21;7.20;99.90
11142;DHT22;5625;50.122;19.864;2023-03-14T05:17:50;7.20;99.90
11142;DHT22;5625;50.122;19.864;2023-03-14T05:20:19;7.20;99.90
11142;DHT22;5625;50.122;19.864;2023-03-14T05:22:47;7.20;99.90
11142;DHT22;5625;50.122;19.864;2023-03-14T05:25:15;7.10;99.90
11142;DHT22;5625;50.122;19.864;2023-03-14T05:27:43;7.10;99.90
11142;DHT22;5625;50.122;19.864;2023-03-14T05:30:12;7.10;99.90
11142;DHT22;5625;50.122;19.864;2023-03-14T05:32:40;7.10;99.90
11142;DHT22;5625;50.122;19.864;2023-03-14T05:35:09;7.20;99.90
11142;DHT22;5625;50.122;19.864;2023-03-14T05:37:37;7.20;99.90
11142;DHT22;5625;50.122;19.864;2023-03-14T05:40:06;7.20;99.90
11142;DHT22;5625;50.122;19.864;2023-03-14T05:42:35;7.30;99.90
11142;DHT22;5625;50.122;19.864;2023-03-14T05:45:04;7.30;99.90
11142;DHT22;5625;50.122;19.864;2023-03-14T05:47:33;7.40;99.90
11142;DHT22;5625;50.122;19.864;2023-03-14T05:50:02;7.50;99.90
11142;DHT22;5625;50.122;19.864;2023-03-14T05:52:31;7.60;99.90
11142;DHT22;5625;50.122;19.864;2023-03-14T05:54:59;7.60;99.90
11142;DHT22;5625;50.122;19.864;2023-03-14T05:57:27;7.60;99.90
11142;DHT22;5625;50.122;19.864;2023-03-14T05:59:56;7.70;99.90
11142;DHT22;5625;50.122;19.864;2023-03-14T06:02:24;7.70;99.90
11142;DHT22;5625;50.122;19.864;2023-03-14T06:04:52;7.70;99.90
11142;DHT22;5625;50.122;19.864;2023-03-14T06:07:20;7.90;99.90
11142;DHT22;5625;50.122;19.864;2023-03-14T06:09:49;8.10;99.90
11142;DHT22;5625;50.122;19.864;2023-03-14T06:12:17;8.20;99.90
11142;DHT22;5625;50.122;19.864;2023-03-14T06:14:45;8.20;99.90
11142;DHT22;5625;50.122;19.864;2023-03-14T06:17:13;8.30;99.90
11142;DHT22;5625;50.122;19.864;2023-03-14T06:19:42;8.30;99.90
11142;DHT22;5625;50.122;19.864;2023-03-14T06:22:09;8.40;99.90
11142;DHT22;5625;50.122;19.864;2023-03-14T06:24:37;8.50;99.90
11142;DHT22;5625;50.122;19.864;2023-03-14T06:27:07;8.60;99.90
11142;DHT22;5625;50.122;19.864;2023-03-14T06:29:35;8.60;99.90
11142;DHT22;5625;50.122;19.864;2023-03-14T06:32:04;8.70;99.90
11142;DHT22;5625;50.122;19.864;2023-03-14T06:34:32;8.70;99.90
11142;DHT22;5625;50.122;19.864;2023-03-14T06:37:00;8.80;99.90
11142;DHT22;5625;50.122;19.864;2023-03-14T06:39:28;8.70;99.90
11142;DHT22;5625;50.122;19.864;2023-03-14T06:41:57;8.80;99.90
11142;DHT22;5625;50.122;19.864;2023-03-14T06:44:27;8.80;99.90
11142;DHT22;5625;50.122;19.864;2023-03-14T06:46:55;9.00;99.90
11142;DHT22;5625;50.122;19.864;2023-03-14T06:49:23;9.20;99.90
11142;DHT22;5625;50.122;19.864;2023-03-14T06:51:51;9.30;99.90
11142;DHT22;5625;50.122;19.864;2023-03-14T06:54:19;9.60;99.90
11142;DHT22;5625;50.122;19.864;2023-03-14T06:56:47;9.70;99.90
11142;DHT22;5625;50.122;19.864;2023-03-14T06:59:16;9.80;99.90
11142;DHT22;5625;50.122;19.864;2023-03-14T07:01:47;9.90;99.90
11142;DHT22;5625;50.122;19.864;2023-03-14T07:04:17;10.10;99.90
11142;DHT22;5625;50.122;19.864;2023-03-14T07:06:45;10.40;99.90
11142;DHT22;5625;50.122;19.864;2023-03-14T07:09:15;10.70;99.90
11142;DHT22;5625;50.122;19.864;2023-03-14T07:11:46;11.10;99.90
11142;DHT22;5625;50.122;19.864;2023-03-14T07:14:14;11.40;99.90
11142;DHT22;5625;50.122;19.864;2023-03-14T07:16:42;11.90;99.90
11142;DHT22;5625;50.122;19.864;2023-03-14T07:19:15;12.30;99.90
11142;DHT22;5625;50.122;19.864;2023-03-14T07:21:43;12.60;99.90
11142;DHT22;5625;50.122;19.864;2023-03-14T07:24:11;12.80;99.90
11142;DHT22;5625;50.122;19.864;2023-03-14T07:26:40;12.90;99.90
11142;DHT22;5625;50.122;19.864;2023-03-14T07:29:11;13.20;99.90
11142;DHT22;5625;50.122;19.864;2023-03-14T07:31:39;13.30;99.90
11142;DHT22;5625;50.122;19.864;2023-03-14T07:34:07;13.30;99.90
11142;DHT22;5625;50.122;19.864;2023-03-14T07:36:39;13.50;99.90
11142;DHT22;5625;50.122;19.864;2023-03-14T07:39:07;13.70;99.90
11142;DHT22;5625;50.122;19.864;2023-03-14T07:41:37;13.70;99.90
11142;DHT22;5625;50.122;19.864;2023-03-14T07:44:08;13.90;99.90
11142;DHT22;5625;50.122;19.864;2023-03-14T07:46:36;14.10;99.90
11142;DHT22;5625;50.122;19.864;2023-03-14T07:49:04;14.40;99.90
11142;DHT22;5625;50.122;19.864;2023-03-14T07:51:36;14.30;99.90
11142;DHT22;5625;50.122;19.864;2023-03-14T07:54:05;14.20;99.90
11142;DHT22;5625;50.122;19.864;2023-03-14T07:56:34;14.40;99.90
11142;DHT22;5625;50.122;19.864;2023-03-14T07:59:02;14.50;99.90
11142;DHT22;5625;50.122;19.864;2023-03-14T08:01:31;14.30;99.90
11142;DHT22;5625;50.122;19.864;2023-03-14T08:03:59;14.30;99.90
11142;DHT22;5625;50.122;19.864;2023-03-14T08:06:27;14.40;1.00
11142;DHT22;5625;50.122;19.864;2023-03-14T08:08:57;14.50;1.00
11142;DHT22;5625;50.122;19.864;2023-03-14T08:11:27;14.70;99.90
11142;DHT22;5625;50.122;19.864;2023-03-14T08:13:55;15.40;99.90
11142;DHT22;5625;50.122;19.864;2023-03-14T08:16:23;16.30;99.30
11142;DHT22;5625;50.122;19.864;2023-03-14T08:18:51;17.00;97.80
11142;DHT22;5625;50.122;19.864;2023-03-14T08:21:19;17.40;97.40
11142;DHT22;5625;50.122;19.864;2023-03-14T08:23:50;17.70;97.00
11142;DHT22;5625;50.122;19.864;2023-03-14T08:26:18;17.50;96.60
11142;DHT22;5625;50.122;19.864;2023-03-14T08:28:47;17.10;97.10
11142;DHT22;5625;50.122;19.864;2023-03-14T08:31:15;17.00;96.90
11142;DHT22;5625;50.122;19.864;2023-03-14T08:33:43;16.90;97.30
11142;DHT22;5625;50.122;19.864;2023-03-14T08:36:11;16.60;97.40
11142;DHT22;5625;50.122;19.864;2023-03-14T08:38:39;16.30;98.30
11142;DHT22;5625;50.122;19.864;2023-03-14T08:41:09;16.30;1.00
11142;DHT22;5625;50.122;19.864;2023-03-14T08:43:38;16.20;1.00
11142;DHT22;5625;50.122;19.864;2023-03-14T08:46:10;16.30;1.00
11142;DHT22;5625;50.122;19.864;2023-03-14T08:48:38;16.50;99.90
11142;DHT22;5625;50.122;19.864;2023-03-14T08:51:11;16.40;99.90
11142;DHT22;5625;50.122;19.864;2023-03-14T08:53:40;16.50;99.90
11142;DHT22;5625;50.122;19.864;2023-03-14T08:56:10;16.40;1.00
11142;DHT22;5625;50.122;19.864;2023-03-14T08:58:38;16.40;3.80
11142;DHT22;5625;50.122;19.864;2023-03-14T09:01:07;16.30;97.80
11142;DHT22;5625;50.122;19.864;2023-03-14T09:03:38;16.20;1.00
11142;DHT22;5625;50.122;19.864;2023-03-14T09:06:08;16.10;99.90
11142;DHT22;5625;50.122;19.864;2023-03-14T09:08:38;15.90;93.90
11142;DHT22;5625;50.122;19.864;2023-03-14T09:11:07;15.80;98.80
11142;DHT22;5625;50.122;19.864;2023-03-14T09:13:35;15.70;98.80
11142;DHT22;5625;50.122;19.864;2023-03-14T09:16:04;15.60;98.90
11142;DHT22;5625;50.122;19.864;2023-03-14T09:18:33;15.50;98.80
11142;DHT22;5625;50.122;19.864;2023-03-14T09:21:03;15.50;1.00
11142;DHT22;5625;50.122;19.864;2023-03-14T09:23:31;15.40;99.90
11142;DHT22;5625;50.122;19.864;2023-03-14T09:26:00;15.30;99.90
11142;DHT22;5625;50.122;19.864;2023-03-14T09:28:28;15.30;99.90
11142;DHT22;5625;50.122;19.864;2023-03-14T09:30:57;15.40;99.90
11142;DHT22;5625;50.122;19.864;2023-03-14T09:33:27;15.40;1.00
11142;DHT22;5625;50.122;19.864;2023-03-14T09:35:58;15.40;19.00
11142;DHT22;5625;50.122;19.864;2023-03-14T09:38:28;15.50;1.00
11142;DHT22;5625;50.122;19.864;2023-03-14T09:40:58;15.60;99.90
11142;DHT22;5625;50.122;19.864;2023-03-14T09:43:31;16.00;98.40
11142;DHT22;5625;50.122;19.864;2023-03-14T09:46:01;16.10;98.30
11142;DHT22;5625;50.122;19.864;2023-03-14T09:48:32;16.10;98.20
11142;DHT22;5625;50.122;19.864;2023-03-14T09:51:05;16.00;98.10
11142;DHT22;5625;50.122;19.864;2023-03-14T09:53:40;15.90;98.50
11142;DHT22;5625;50.122;19.864;2023-03-14T09:56:16;15.80;98.60
11142;DHT22;5625;50.122;19.864;2023-03-14T09:58:50;15.80;98.40
11142;DHT22;5625;50.122;19.864;2023-03-14T10:01:22;16.10;98.50
11142;DHT22;5625;50.122;19.864;2023-03-14T10:03:54;16.10;98.00
11142;DHT22;5625;50.122;19.864;2023-03-14T10:06:25;16.10;98.30
11142;DHT22;5625;50.122;19.864;2023-03-14T10:08:58;16.20;97.60
11142;DHT22;5625;50.122;19.864;2023-03-14T10:11:26;16.50;97.70
11142;DHT22;5625;50.122;19.864;2023-03-14T10:14:05;16.80;97.30
11142;DHT22;5625;50.122;19.864;2023-03-14T10:16:35;16.90;97.00
11142;DHT22;5625;50.122;19.864;2023-03-14T10:19:06;17.00;96.60
11142;DHT22;5625;50.122;19.864;2023-03-14T10:21:39;17.10;97.00
11142;DHT22;5625;50.122;19.864;2023-03-14T10:24:10;17.30;96.50
11142;DHT22;5625;50.122;19.864;2023-03-14T10:26:48;17.40;95.70
11142;DHT22;5625;50.122;19.864;2023-03-14T10:29:16;17.60;95.50
11142;DHT22;5625;50.122;19.864;2023-03-14T10:31:51;17.70;95.00
11142;DHT22;5625;50.122;19.864;2023-03-14T10:34:25;17.80;95.30
11142;DHT22;5625;50.122;19.864;2023-03-14T10:36:55;17.80;94.80
11142;DHT22;5625;50.122;19.864;2023-03-14T10:39:27;17.60;95.20
11142;DHT22;5625;50.122;19.864;2023-03-14T10:42:04;17.40;95.40
11142;DHT22;5625;50.122;19.864;2023-03-14T10:44:34;17.40;95.60
11142;DHT22;5625;50.122;19.864;2023-03-14T10:47:04;17.40;95.30
11142;DHT22;5625;50.122;19.864;2023-03-14T10:49:35;17.20;95.70
11142;DHT22;5625;50.122;19.864;2023-03-14T10:52:14;17.20;96.10
11142;DHT22;5625;50.122;19.864;2023-03-14T10:54:49;17.10;99.90
11142;DHT22;5625;50.122;19.864;2023-03-14T10:57:19;17.00;99.90
11142;DHT22;5625;50.122;19.864;2023-03-14T10:59:48;16.90;99.90
11142;DHT22;5625;50.122;19.864;2023-03-14T11:02:32;16.80;1.00
11142;DHT22;5625;50.122;19.864;2023-03-14T11:05:12;16.70;1.00
11142;DHT22;5625;50.122;19.864;2023-03-14T11:07:44;16.70;99.90
11142;DHT22;5625;50.122;19.864;2023-03-14T11:10:19;16.60;1.00
11142;DHT22;5625;50.122;19.864;2023-03-14T11:12:59;16.60;1.00
11142;DHT22;5625;50.122;19.864;2023-03-14T11:15:34;16.50;88.80
11142;DHT22;5625;50.122;19.864;2023-03-14T11:18:23;16.50;99.90
11142;DHT22;5625;50.122;19.864;2023-03-14T11:20:55;16.40;99.90
11142;DHT22;5625;50.122;19.864;2023-03-14T11:23:29;16.20;99.90
11142;DHT22;5625;50.122;19.864;2023-03-14T11:26:14;16.20;1.00
11142;DHT22;5625;50.122;19.864;2023-03-14T11:28:49;16.10;99.90
11142;DHT22;5625;50.122;19.864;2023-03-14T11:31:22;16.00;99.90
11142;DHT22;5625;50.122;19.864;2023-03-14T11:33:56;15.90;99.90
11142;DHT22;5625;50.122;19.864;2023-03-14T11:36:32;15.90;1.00
11142;DHT22;5625;50.122;19.864;2023-03-14T11:39:02;15.80;1.00
11142;DHT22;5625;50.122;19.864;2023-03-14T11:41:34;15.80;99.90
11142;DHT22;5625;50.122;19.864;2023-03-14T11:44:09;15.70;1.00
11142;DHT22;5625;50.122;19.864;2023-03-14T11:46:40;15.60;1.00
11142;DHT22;5625;50.122;19.864;2023-03-14T11:49:15;15.60;99.90
11142;DHT22;5625;50.122;19.864;2023-03-14T11:51:47;15.50;99.90
11142;DHT22;5625;50.122;19.864;2023-03-14T11:54:22;15.50;1.00
11142;DHT22;5625;50.122;19.864;2023-03-14T11:56:59;15.40;22.90
11142;DHT22;5625;50.122;19.864;2023-03-14T11:59:33;15.30;99.90
11142;DHT22;5625;50.122;19.864;2023-03-14T12:02:13;15.30;99.90
11142;DHT22;5625;50.122;19.864;2023-03-14T12:04:53;15.30;1.00
11142;DHT22;5625;50.122;19.864;2023-03-14T12:07:29;15.20;1.00
11142;DHT22;5625;50.122;19.864;2023-03-14T12:09:57;15.10;1.00
11142;DHT22;5625;50.122;19.864;2023-03-14T12:12:28;15.10;32.10
11142;DHT22;5625;50.122;19.864;2023-03-14T12:14:58;15.00;76.20
11142;DHT22;5625;50.122;19.864;2023-03-14T12:17:34;15.00;99.90
11142;DHT22;5625;50.122;19.864;2023-03-14T12:20:11;15.00;99.90
11142;DHT22;5625;50.122;19.864;2023-03-14T12:22:44;14.90;91.30
11142;DHT22;5625;50.122;19.864;2023-03-14T12:25:18;14.90;84.20
11142;DHT22;5625;50.122;19.864;2023-03-14T12:28:13;14.90;3.10
11142;DHT22;5625;50.122;19.864;2023-03-14T12:30:44;14.80;95.70
11142;DHT22;5625;50.122;19.864;2023-03-14T12:33:30;14.90;99.90
11142;DHT22;5625;50.122;19.864;2023-03-14T12:36:03;14.80;99.90
11142;DHT22;5625;50.122;19.864;2023-03-14T12:38:46;14.80;99.90
11142;DHT22;5625;50.122;19.864;2023-03-14T12:41:20;14.80;99.90
11142;DHT22;5625;50.122;19.864;2023-03-14T12:43:50;14.80;99.90
11142;DHT22;5625;50.122;19.864;2023-03-14T12:46:23;14.80;99.90
11142;DHT22;5625;50.122;19.864;2023-03-14T12:49:03;14.80;99.90
11142;DHT22;5625;50.122;19.864;2023-03-14T12:51:35;14.90;99.90
11142;DHT22;5625;50.122;19.864;2023-03-14T12:59:55;15.00;99.90
11142;DHT22;5625;50.122;19.864;2023-03-14T13:02:26;15.00;99.90
11142;DHT22;5625;50.122;19.864;2023-03-14T13:05:02;15.00;99.90
11142;DHT22;5625;50.122;19.864;2023-03-14T13:07:35;15.00;99.90
11142;DHT22;5625;50.122;19.864;2023-03-14T13:10:18;15.00;99.10
11142;DHT22;5625;50.122;19.864;2023-03-14T13:12:52;14.90;99.90
11142;DHT22;5625;50.122;19.864;2023-03-14T13:15:27;14.80;99.90
11142;DHT22;5625;50.122;19.864;2023-03-14T13:18:02;14.80;99.90
11142;DHT22;5625;50.122;19.864;2023-03-14T13:20:34;14.80;99.90
11142;DHT22;5625;50.122;19.864;2023-03-14T13:23:03;14.70;99.90
11142;DHT22;5625;50.122;19.864;2023-03-14T13:25:33;14.70;99.90
11142;DHT22;5625;50.122;19.864;2023-03-14T13:28:03;14.60;99.90
11142;DHT22;5625;50.122;19.864;2023-03-14T13:30:41;14.60;99.90
11142;DHT22;5625;50.122;19.864;2023-03-14T13:33:15;14.50;99.90
11142;DHT22;5625;50.122;19.864;2023-03-14T13:35:45;14.50;99.90
11142;DHT22;5625;50.122;19.864;2023-03-14T13:38:17;14.50;99.90
11142;DHT22;5625;50.122;19.864;2023-03-14T13:40:47;14.50;99.90
11142;DHT22;5625;50.122;19.864;2023-03-14T13:43:18;14.40;99.90
11142;DHT22;5625;50.122;19.864;2023-03-14T13:45:56;14.40;99.90
11142;DHT22;5625;50.122;19.864;2023-03-14T13:48:30;14.40;99.90
11142;DHT22;5625;50.122;19.864;2023-03-14T13:51:01;14.30;99.90
11142;DHT22;5625;50.122;19.864;2023-03-14T13:53:31;14.30;99.90
11142;DHT22;5625;50.122;19.864;2023-03-14T13:56:02;14.20;99.90
11142;DHT22;5625;50.122;19.864;2023-03-14T13:58:32;14.20;99.90
11142;DHT22;5625;50.122;19.864;2023-03-14T14:01:05;14.10;99.90
11142;DHT22;5625;50.122;19.864;2023-03-14T14:03:38;14.10;99.90
11142;DHT22;5625;50.122;19.864;2023-03-14T14:06:16;14.10;99.90
11142;DHT22;5625;50.122;19.864;2023-03-14T14:08:47;14.00;99.90
11142;DHT22;5625;50.122;19.864;2023-03-14T14:11:22;13.90;99.90
11142;DHT22;5625;50.122;19.864;2023-03-14T14:14:13;13.90;99.90
11142;DHT22;5625;50.122;19.864;2023-03-14T14:16:46;13.80;99.90
11142;DHT22;5625;50.122;19.864;2023-03-14T14:19:19;13.80;99.90
11142;DHT22;5625;50.122;19.864;2023-03-14T14:21:48;13.70;99.90
11142;DHT22;5625;50.122;19.864;2023-03-14T14:24:17;13.60;1.00
11142;DHT22;5625;50.122;19.864;2023-03-14T14:26:47;13.60;1.00
11142;DHT22;5625;50.122;19.864;2023-03-14T14:29:26;13.50;1.00
11142;DHT22;5625;50.122;19.864;2023-03-14T14:32:09;13.50;1.00
11142;DHT22;5625;50.122;19.864;2023-03-14T14:34:40;13.40;1.00
11142;DHT22;5625;50.122;19.864;2023-03-14T14:39:48;13.30;1.00
11142;DHT22;5625;50.122;19.864;2023-03-14T14:42:20;13.30;1.00
11142;DHT22;5625;50.122;19.864;2023-03-14T14:44:51;13.20;1.00
11142;DHT22;5625;50.122;19.864;2023-03-14T14:47:23;13.20;1.00
11142;DHT22;5625;50.122;19.864;2023-03-14T14:49:54;13.10;1.00
11142;DHT22;5625;50.122;19.864;2023-03-14T14:52:33;13.10;1.00
11142;DHT22;5625;50.122;19.864;2023-03-14T14:55:01;13.10;1.00
11142;DHT22;5625;50.122;19.864;2023-03-14T14:57:32;13.00;1.00
11142;DHT22;5625;50.122;19.864;2023-03-14T15:00:05;13.00;1.00
11142;DHT22;5625;50.122;19.864;2023-03-14T15:02:41;13.00;1.00
11142;DHT22;5625;50.122;19.864;2023-03-14T15:05:14;12.90;1.00
11142;DHT22;5625;50.122;19.864;2023-03-14T15:07:42;12.90;1.00
11142;DHT22;5625;50.122;19.864;2023-03-14T15:10:12;12.90;3.20
11142;DHT22;5625;50.122;19.864;2023-03-14T15:12:40;12.90;6.10
11142;DHT22;5625;50.122;19.864;2023-03-14T15:15:10;12.90;10.00
11142;DHT22;5625;50.122;19.864;2023-03-14T15:17:39;12.80;13.00
11142;DHT22;5625;50.122;19.864;2023-03-14T15:20:12;12.80;13.00
11142;DHT22;5625;50.122;19.864;2023-03-14T15:22:41;12.70;17.60
11142;DHT22;5625;50.122;19.864;2023-03-14T15:25:09;12.70;19.60
11142;DHT22;5625;50.122;19.864;2023-03-14T15:27:58;12.70;21.10
11142;DHT22;5625;50.122;19.864;2023-03-14T15:30:28;12.70;22.20
11142;DHT22;5625;50.122;19.864;2023-03-14T15:32:58;12.60;23.80
11142;DHT22;5625;50.122;19.864;2023-03-14T15:35:27;12.60;25.70
11142;DHT22;5625;50.122;19.864;2023-03-14T15:37:55;12.50;22.80
11142;DHT22;5625;50.122;19.864;2023-03-14T15:40:24;12.50;24.60
11142;DHT22;5625;50.122;19.864;2023-03-14T15:42:56;12.50;26.40
11142;DHT22;5625;50.122;19.864;2023-03-14T15:45:24;12.50;27.90
11142;DHT22;5625;50.122;19.864;2023-03-14T15:47:54;12.50;27.00
11142;DHT22;5625;50.122;19.864;2023-03-14T15:50:24;12.40;29.40
11142;DHT22;5625;50.122;19.864;2023-03-14T15:52:53;12.40;34.50
11142;DHT22;5625;50.122;19.864;2023-03-14T15:55:22;12.40;42.20
11142;DHT22;5625;50.122;19.864;2023-03-14T15:57:50;12.40;55.40
11142;DHT22;5625;50.122;19.864;2023-03-14T16:00:20;12.30;70.10
11142;DHT22;5625;50.122;19.864;2023-03-14T16:02:49;12.30;83.70
11142;DHT22;5625;50.122;19.864;2023-03-14T16:05:17;12.20;90.80
11142;DHT22;5625;50.122;19.864;2023-03-14T16:07:48;12.20;94.40
11142;DHT22;5625;50.122;19.864;2023-03-14T16:10:16;12.10;95.00
11142;DHT22;5625;50.122;19.864;2023-03-14T16:12:44;12.10;97.10